sensor_id;sensor_type;location;lat;lon;timestamp;pressure;altitude;pressure_sealevel;temperature;humidity
31225;BME280;17847;31.524;74.366;2023-07-13T00:02:15;97516.06;;;27.10;100.00
31225;BME280;17847;31.524;74.366;2023-07-13T00:04:44;97508.66;;;27.19;100.00
31225;BME280;17847;31.524;74.366;2023-07-13T00:07:14;97513.63;;;27.17;100.00
31225;BME280;17847;31.524;74.366;2023-07-13T00:09:43;97511.59;;;27.05;100.00
31225;BME280;17847;31.524;74.366;2023-07-13T00:12:33;97513.69;;;27.08;100.00
31225;BME280;17847;31.524;74.366;2023-07-13T00:15:22;97515.88;;;27.15;100.00
31225;BME280;17847;31.524;74.366;2023-07-13T00:17:53;97518.28;;;27.16;100.00
31225;BME280;17847;31.524;74.366;2023-07-13T00:20:24;97528.34;;;27.16;100.00
31225;BME280;17847;31.524;74.366;2023-07-13T00:22:54;97525.91;;;27.23;100.00
31225;BME280;17847;31.524;74.366;2023-07-13T00:25:24;97530.03;;;27.29;100.00
31225;BME280;17847;31.524;74.366;2023-07-13T00:27:56;97534.06;;;27.23;100.00
31225;BME280;17847;31.524;74.366;2023-07-13T00:30:26;97534.00;;;27.32;100.00
31225;BME280;17847;31.524;74.366;2023-07-13T00:32:58;97534.13;;;27.35;100.00
31225;BME280;17847;31.524;74.366;2023-07-13T00:35:44;97538.00;;;27.34;100.00
31225;BME280;17847;31.524;74.366;2023-07-13T00:38:13;97540.09;;;27.29;100.00
31225;BME280;17847;31.524;74.366;2023-07-13T00:40:43;97542.50;;;27.30;100.00
31225;BME280;17847;31.524;74.366;2023-07-13T00:43:18;97540.59;;;27.22;100.00
31225;BME280;17847;31.524;74.366;2023-07-13T00:48:31;97548.03;;;27.13;100.00
31225;BME280;17847;31.524;74.366;2023-07-13T00:51:01;97548.03;;;27.13;100.00
31225;BME280;17847;31.524;74.366;2023-07-13T00:53:33;97551.75;;;27.08;100.00
31225;BME280;17847;31.524;74.366;2023-07-13T00:56:04;97557.09;;;27.25;100.00
31225;BME280;17847;31.524;74.366;2023-07-13T00:58:35;97561.53;;;27.30;100.00
31225;BME280;17847;31.524;74.366;2023-07-13T01:01:04;97556.56;;;27.32;100.00
31225;BME280;17847;31.524;74.366;2023-07-13T01:03:35;97559.75;;;27.34;100.00
31225;BME280;17847;31.524;74.366;2023-07-13T01:06:05;97554.97;;;27.31;100.00
31225;BME280;17847;31.524;74.366;2023-07-13T01:08:34;97552.19;;;27.40;100.00
31225;BME280;17847;31.524;74.366;2023-07-13T01:11:03;97550.63;;;27.39;100.00
31225;BME280;17847;31.524;74.366;2023-07-13T01:13:34;97547.53;;;27.40;100.00
31225;BME280;17847;31.524;74.366;2023-07-13T01:16:13;97541.47;;;27.43;100.00
31225;BME280;17847;31.524;74.366;2023-07-13T01:18:44;97549.13;;;27.41;100.00
31225;BME280;17847;31.524;74.366;2023-07-13T01:21:13;97546.91;;;27.43;100.00
31225;BME280;17847;31.524;74.366;2023-07-13T01:23:42;97552.63;;;27.50;100.00
31225;BME280;17847;31.524;74.366;2023-07-13T01:26:14;97550.41;;;27.52;100.00
31225;BME280;17847;31.524;74.366;2023-07-13T01:28:44;97549.47;;;27.48;100.00
31225;BME280;17847;31.524;74.366;2023-07-13T01:31:13;97548.13;;;27.54;100.00
31225;BME280;17847;31.524;74.366;2023-07-13T01:33:43;97549.19;;;27.62;100.00
31225;BME280;17847;31.524;74.366;2023-07-13T01:36:12;97549.47;;;27.69;100.00
31225;BME280;17847;31.524;74.366;2023-07-13T01:38:43;97556.28;;;27.75;100.00
31225;BME280;17847;31.524;74.366;2023-07-13T01:41:12;97557.69;;;27.81;100.00
31225;BME280;17847;31.524;74.366;2023-07-13T01:43:42;97554.16;;;27.81;100.00
31225;BME280;17847;31.524;74.366;2023-07-13T01:46:11;97565.06;;;28.01;100.00
31225;BME280;17847;31.524;74.366;2023-07-13T01:48:43;97576.47;;;28.16;100.00
31225;BME280;17847;31.524;74.366;2023-07-13T01:51:12;97573.25;;;28.34;100.00
31225;BME280;17847;31.524;74.366;2023-07-13T01:53:44;97576.28;;;28.53;100.00
31225;BME280;17847;31.524;74.366;2023-07-13T01:56:14;97586.72;;;28.64;99.49
31225;BME280;17847;31.524;74.366;2023-07-13T01:58:45;97590.91;;;28.82;98.24
31225;BME280;17847;31.524;74.366;2023-07-13T02:01:16;97599.94;;;29.31;96.18
31225;BME280;17847;31.524;74.366;2023-07-13T02:03:46;97594.22;;;29.72;93.32
31225;BME280;17847;31.524;74.366;2023-07-13T02:06:16;97598.44;;;29.70;92.68
31225;BME280;17847;31.524;74.366;2023-07-13T02:08:45;97604.34;;;29.72;89.29
31225;BME280;17847;31.524;74.366;2023-07-13T02:11:15;97602.56;;;29.64;90.63
31225;BME280;17847;31.524;74.366;2023-07-13T02:13:44;97603.41;;;29.80;89.41
31225;BME280;17847;31.524;74.366;2023-07-13T02:16:14;97598.09;;;30.23;87.97
31225;BME280;17847;31.524;74.366;2023-07-13T02:18:44;97604.50;;;30.43;87.61
31225;BME280;17847;31.524;74.366;2023-07-13T02:21:13;97596.09;;;30.64;84.51
31225;BME280;17847;31.524;74.366;2023-07-13T02:23:45;97600.69;;;31.19;84.89
31225;BME280;17847;31.524;74.366;2023-07-13T02:26:16;97601.81;;;31.34;82.68
31225;BME280;17847;31.524;74.366;2023-07-13T02:28:45;97603.81;;;31.52;79.22
31225;BME280;17847;31.524;74.366;2023-07-13T02:31:15;97609.13;;;31.61;79.51
31225;BME280;17847;31.524;74.366;2023-07-13T02:33:46;97610.00;;;31.65;79.62
31225;BME280;17847;31.524;74.366;2023-07-13T02:36:17;97618.25;;;31.84;76.80
31225;BME280;17847;31.524;74.366;2023-07-13T02:38:49;97620.38;;;31.91;76.63
31225;BME280;17847;31.524;74.366;2023-07-13T02:41:20;97620.06;;;32.12;76.98
31225;BME280;17847;31.524;74.366;2023-07-13T02:43:52;97628.94;;;32.63;77.63
31225;BME280;17847;31.524;74.366;2023-07-13T02:46:22;97625.13;;;32.48;76.33
31225;BME280;17847;31.524;74.366;2023-07-13T02:48:55;97629.41;;;32.87;76.16
31225;BME280;17847;31.524;74.366;2023-07-13T02:51:25;97634.16;;;33.13;74.35
31225;BME280;17847;31.524;74.366;2023-07-13T02:53:54;97629.53;;;32.94;72.65
31225;BME280;17847;31.524;74.366;2023-07-13T02:56:27;97632.53;;;32.67;75.65
31225;BME280;17847;31.524;74.366;2023-07-13T02:58:57;97633.69;;;33.08;72.00
31225;BME280;17847;31.524;74.366;2023-07-13T03:01:26;97638.84;;;33.32;72.39
31225;BME280;17847;31.524;74.366;2023-07-13T03:03:56;97638.94;;;33.39;71.86
31225;BME280;17847;31.524;74.366;2023-07-13T03:06:25;97638.84;;;33.32;72.50
31225;BME280;17847;31.524;74.366;2023-07-13T03:08:59;97638.16;;;32.54;73.21
31225;BME280;17847;31.524;74.366;2023-07-13T03:11:31;97652.06;;;32.84;74.37
31225;BME280;17847;31.524;74.366;2023-07-13T03:14:09;97657.63;;;33.11;72.56
31225;BME280;17847;31.524;74.366;2023-07-13T03:16:40;97656.44;;;32.66;75.26
31225;BME280;17847;31.524;74.366;2023-07-13T03:19:09;97664.34;;;32.71;76.10
31225;BME280;17847;31.524;74.366;2023-07-13T03:21:41;97666.31;;;32.71;75.37
31225;BME280;17847;31.524;74.366;2023-07-13T03:24:10;97675.09;;;32.61;75.53
31225;BME280;17847;31.524;74.366;2023-07-13T03:26:39;97670.66;;;32.18;75.46
31225;BME280;17847;31.524;74.366;2023-07-13T03:29:10;97663.91;;;32.12;76.14
31225;BME280;17847;31.524;74.366;2023-07-13T03:31:40;97663.94;;;32.31;77.39
31225;BME280;17847;31.524;74.366;2023-07-13T03:34:09;97670.44;;;31.91;77.96
31225;BME280;17847;31.524;74.366;2023-07-13T03:36:40;97669.28;;;32.62;77.51
31225;BME280;17847;31.524;74.366;2023-07-13T03:39:12;97674.16;;;32.53;78.22
31225;BME280;17847;31.524;74.366;2023-07-13T03:41:54;97680.44;;;32.53;77.88
31225;BME280;17847;31.524;74.366;2023-07-13T03:44:23;97675.81;;;32.96;76.97
31225;BME280;17847;31.524;74.366;2023-07-13T03:46:56;97679.09;;;32.63;77.92
31225;BME280;17847;31.524;74.366;2023-07-13T03:49:26;97679.94;;;32.29;76.82
31225;BME280;17847;31.524;74.366;2023-07-13T03:51:55;97687.56;;;32.20;78.58
31225;BME280;17847;31.524;74.366;2023-07-13T03:54:25;97683.28;;;31.87;79.06
31225;BME280;17847;31.524;74.366;2023-07-13T03:56:55;97690.94;;;32.13;80.43
31225;BME280;17847;31.524;74.366;2023-07-13T03:59:24;97682.91;;;31.89;78.39
31225;BME280;17847;31.524;74.366;2023-07-13T04:01:54;97684.75;;;32.16;78.74
31225;BME280;17847;31.524;74.366;2023-07-13T04:04:24;97694.00;;;32.46;76.56
31225;BME280;17847;31.524;74.366;2023-07-13T04:06:54;97698.28;;;31.93;79.29
31225;BME280;17847;31.524;74.366;2023-07-13T04:09:25;97691.19;;;31.57;78.40
31225;BME280;17847;31.524;74.366;2023-07-13T04:11:54;97683.59;;;32.17;78.76
31225;BME280;17847;31.524;74.366;2023-07-13T04:14:23;97680.53;;;32.57;75.94
31225;BME280;17847;31.524;74.366;2023-07-13T04:16:53;97678.94;;;32.56;77.39
31225;BME280;17847;31.524;74.366;2023-07-13T04:19:23;97686.00;;;31.87;78.86
31225;BME280;17847;31.524;74.366;2023-07-13T04:21:52;97673.75;;;31.81;79.20
31225;BME280;17847;31.524;74.366;2023-07-13T04:24:22;97676.19;;;32.37;79.77
31225;BME280;17847;31.524;74.366;2023-07-13T04:26:51;97676.19;;;32.56;77.69
31225;BME280;17847;31.524;74.366;2023-07-13T04:29:21;97683.69;;;32.59;77.16
31225;BME280;17847;31.524;74.366;2023-07-13T04:31:50;97683.53;;;32.90;76.35
31225;BME280;17847;31.524;74.366;2023-07-13T04:34:19;97682.38;;;33.33;76.96
31225;BME280;17847;31.524;74.366;2023-07-13T04:36:48;97689.00;;;33.10;74.42
31225;BME280;17847;31.524;74.366;2023-07-13T04:39:19;97689.75;;;32.87;75.82
31225;BME280;17847;31.524;74.366;2023-07-13T04:41:49;97693.53;;;33.21;77.68
31225;BME280;17847;31.524;74.366;2023-07-13T04:44:18;97689.19;;;33.89;72.72
31225;BME280;17847;31.524;74.366;2023-07-13T04:46:48;97688.84;;;33.45;74.07
31225;BME280;17847;31.524;74.366;2023-07-13T04:49:17;97688.81;;;33.41;74.40
31225;BME280;17847;31.524;74.366;2023-07-13T04:51:47;97697.09;;;33.67;72.65
31225;BME280;17847;31.524;74.366;2023-07-13T04:54:16;97692.66;;;33.36;74.12
31225;BME280;17847;31.524;74.366;2023-07-13T04:56:46;97694.03;;;33.50;73.27
31225;BME280;17847;31.524;74.366;2023-07-13T04:59:15;97693.03;;;33.84;72.57
31225;BME280;17847;31.524;74.366;2023-07-13T05:01:45;97697.53;;;34.22;71.82
31225;BME280;17847;31.524;74.366;2023-07-13T05:04:15;97695.34;;;34.64;70.42
31225;BME280;17847;31.524;74.366;2023-07-13T05:06:44;97700.91;;;34.38;70.20
31225;BME280;17847;31.524;74.366;2023-07-13T05:09:14;97700.81;;;34.05;71.02
31225;BME280;17847;31.524;74.366;2023-07-13T05:11:44;97703.72;;;33.89;72.17
31225;BME280;17847;31.524;74.366;2023-07-13T05:14:14;97707.81;;;33.30;73.90
31225;BME280;17847;31.524;74.366;2023-07-13T05:16:45;97706.16;;;33.68;73.17
31225;BME280;17847;31.524;74.366;2023-07-13T05:19:15;97708.81;;;33.91;74.80
31225;BME280;17847;31.524;74.366;2023-07-13T05:21:44;97706.50;;;33.93;71.89
31225;BME280;17847;31.524;74.366;2023-07-13T05:24:13;97710.50;;;33.27;75.16
31225;BME280;17847;31.524;74.366;2023-07-13T05:26:53;97703.84;;;33.51;74.19
31225;BME280;17847;31.524;74.366;2023-07-13T05:29:22;97700.94;;;33.86;75.00
31225;BME280;17847;31.524;74.366;2023-07-13T05:31:52;97707.31;;;33.25;74.14
31225;BME280;17847;31.524;74.366;2023-07-13T05:34:22;97704.97;;;33.23;75.42
31225;BME280;17847;31.524;74.366;2023-07-13T05:36:51;97704.81;;;33.62;75.40
31225;BME280;17847;31.524;74.366;2023-07-13T05:39:22;97712.81;;;33.25;76.13
31225;BME280;17847;31.524;74.366;2023-07-13T05:41:51;97702.53;;;33.41;76.84
31225;BME280;17847;31.524;74.366;2023-07-13T05:44:21;97711.44;;;34.06;75.77
31225;BME280;17847;31.524;74.366;2023-07-13T05:46:50;97713.78;;;33.81;72.37
31225;BME280;17847;31.524;74.366;2023-07-13T05:49:21;97710.94;;;34.01;73.09
31225;BME280;17847;31.524;74.366;2023-07-13T05:51:50;97710.41;;;33.92;72.19
31225;BME280;17847;31.524;74.366;2023-07-13T05:54:20;97710.56;;;34.25;73.03
31225;BME280;17847;31.524;74.366;2023-07-13T05:56:51;97704.25;;;34.24;74.80
31225;BME280;17847;31.524;74.366;2023-07-13T05:59:20;97698.31;;;33.70;72.34
31225;BME280;17847;31.524;74.366;2023-07-13T06:01:50;97703.50;;;33.75;74.50
31225;BME280;17847;31.524;74.366;2023-07-13T06:04:21;97703.97;;;33.58;75.11
31225;BME280;17847;31.524;74.366;2023-07-13T06:06:51;97703.34;;;34.17;74.02
31225;BME280;17847;31.524;74.366;2023-07-13T06:09:20;97704.09;;;33.88;72.30
31225;BME280;17847;31.524;74.366;2023-07-13T06:11:50;97703.13;;;34.03;73.66
31225;BME280;17847;31.524;74.366;2023-07-13T06:14:19;97694.28;;;34.43;72.65
31225;BME280;17847;31.524;74.366;2023-07-13T06:16:49;97695.97;;;34.84;71.11
31225;BME280;17847;31.524;74.366;2023-07-13T06:19:18;97697.09;;;34.80;71.83
31225;BME280;17847;31.524;74.366;2023-07-13T06:21:48;97713.16;;;34.44;71.45
31225;BME280;17847;31.524;74.366;2023-07-13T06:24:17;97713.88;;;33.85;68.69
31225;BME280;17847;31.524;74.366;2023-07-13T06:26:46;97713.81;;;34.08;73.25
31225;BME280;17847;31.524;74.366;2023-07-13T06:29:15;97708.63;;;33.76;72.63
31225;BME280;17847;31.524;74.366;2023-07-13T06:31:45;97709.16;;;33.86;70.81
31225;BME280;17847;31.524;74.366;2023-07-13T06:34:14;97702.59;;;33.67;73.72
31225;BME280;17847;31.524;74.366;2023-07-13T06:36:44;97700.06;;;33.59;73.55
31225;BME280;17847;31.524;74.366;2023-07-13T06:39:14;97708.19;;;33.29;73.57
31225;BME280;17847;31.524;74.366;2023-07-13T06:41:44;97698.84;;;33.33;73.53
31225;BME280;17847;31.524;74.366;2023-07-13T06:44:14;97699.59;;;33.76;71.51
31225;BME280;17847;31.524;74.366;2023-07-13T06:46:43;97707.81;;;33.99;73.24
31225;BME280;17847;31.524;74.366;2023-07-13T06:49:14;97702.81;;;34.08;73.21
31225;BME280;17847;31.524;74.366;2023-07-13T06:51:43;97713.38;;;34.06;71.88
31225;BME280;17847;31.524;74.366;2023-07-13T06:54:13;97689.44;;;34.33;71.47
31225;BME280;17847;31.524;74.366;2023-07-13T06:56:43;97691.63;;;34.20;72.06
31225;BME280;17847;31.524;74.366;2023-07-13T06:59:12;97687.81;;;34.28;72.07
31225;BME280;17847;31.524;74.366;2023-07-13T07:01:42;97700.53;;;34.40;70.78
31225;BME280;17847;31.524;74.366;2023-07-13T07:04:11;97695.16;;;34.50;69.62
31225;BME280;17847;31.524;74.366;2023-07-13T07:06:41;97691.13;;;33.88;72.23
31225;BME280;17847;31.524;74.366;2023-07-13T07:09:10;97689.41;;;34.29;74.64
31225;BME280;17847;31.524;74.366;2023-07-13T07:11:40;97693.38;;;34.35;71.12
31225;BME280;17847;31.524;74.366;2023-07-13T07:14:37;97688.13;;;34.53;70.21
31225;BME280;17847;31.524;74.366;2023-07-13T07:17:07;97687.81;;;34.28;70.83
31225;BME280;17847;31.524;74.366;2023-07-13T07:19:37;97684.63;;;33.73;69.87
31225;BME280;17847;31.524;74.366;2023-07-13T07:22:07;97683.78;;;33.69;71.98
31225;BME280;17847;31.524;74.366;2023-07-13T07:24:36;97685.66;;;33.65;71.43
31225;BME280;17847;31.524;74.366;2023-07-13T07:27:06;97687.31;;;33.96;71.29
31225;BME280;17847;31.524;74.366;2023-07-13T07:29:38;97687.69;;;33.95;72.06
31225;BME280;17847;31.524;74.366;2023-07-13T07:32:14;97682.75;;;33.55;71.98
31225;BME280;17847;31.524;74.366;2023-07-13T07:35:04;97686.22;;;33.74;73.47
31225;BME280;17847;31.524;74.366;2023-07-13T07:37:34;97682.56;;;33.67;73.54
31225;BME280;17847;31.524;74.366;2023-07-13T07:40:08;97677.19;;;33.51;72.51
31225;BME280;17847;31.524;74.366;2023-07-13T07:42:41;97678.72;;;33.71;72.03
31225;BME280;17847;31.524;74.366;2023-07-13T07:45:10;97675.41;;;33.85;72.16
31225;BME280;17847;31.524;74.366;2023-07-13T07:47:40;97670.88;;;34.00;69.42
31225;BME280;17847;31.524;74.366;2023-07-13T07:50:10;97675.63;;;34.25;71.16
31225;BME280;17847;31.524;74.366;2023-07-13T07:52:39;97681.94;;;34.30;72.78
31225;BME280;17847;31.524;74.366;2023-07-13T07:55:09;97670.56;;;34.05;70.57
31225;BME280;17847;31.524;74.366;2023-07-13T07:57:41;97666.75;;;34.13;70.23
31225;BME280;17847;31.524;74.366;2023-07-13T08:00:14;97667.28;;;33.96;71.00
31225;BME280;17847;31.524;74.366;2023-07-13T08:02:47;97667.19;;;34.15;70.89
31225;BME280;17847;31.524;74.366;2023-07-13T08:05:19;97657.41;;;33.91;71.70
31225;BME280;17847;31.524;74.366;2023-07-13T08:08:04;97653.56;;;34.22;70.26
31225;BME280;17847;31.524;74.366;2023-07-13T08:10:35;97659.28;;;34.13;69.85
31225;BME280;17847;31.524;74.366;2023-07-13T08:13:06;97649.56;;;33.90;71.14
31225;BME280;17847;31.524;74.366;2023-07-13T08:15:39;97647.41;;;33.53;72.72
31225;BME280;17847;31.524;74.366;2023-07-13T08:18:08;97645.59;;;33.38;71.30
31225;BME280;17847;31.524;74.366;2023-07-13T08:20:38;97643.81;;;33.49;73.52
31225;BME280;17847;31.524;74.366;2023-07-13T08:23:09;97646.69;;;33.33;74.08
31225;BME280;17847;31.524;74.366;2023-07-13T08:25:39;97640.78;;;33.31;72.49
31225;BME280;17847;31.524;74.366;2023-07-13T08:28:10;97637.44;;;33.19;72.40
31225;BME280;17847;31.524;74.366;2023-07-13T08:30:39;97631.41;;;33.32;72.63
31225;BME280;17847;31.524;74.366;2023-07-13T08:33:10;97626.94;;;33.24;73.17
31225;BME280;17847;31.524;74.366;2023-07-13T08:35:40;97630.72;;;33.16;73.75
31225;BME280;17847;31.524;74.366;2023-07-13T08:38:09;97619.03;;;33.19;73.72
31225;BME280;17847;31.524;74.366;2023-07-13T08:40:39;97620.31;;;33.06;72.87
31225;BME280;17847;31.524;74.366;2023-07-13T08:43:16;97612.22;;;32.90;72.72
31225;BME280;17847;31.524;74.366;2023-07-13T08:45:59;97607.94;;;32.93;73.19
31225;BME280;17847;31.524;74.366;2023-07-13T08:48:36;97607.47;;;32.87;74.59
31225;BME280;17847;31.524;74.366;2023-07-13T08:53:58;97596.00;;;33.05;74.09
31225;BME280;17847;31.524;74.366;2023-07-13T08:56:30;97588.31;;;33.14;74.87
31225;BME280;17847;31.524;74.366;2023-07-13T08:59:10;97590.63;;;33.34;73.75
31225;BME280;17847;31.524;74.366;2023-07-13T09:04:53;97580.53;;;33.42;74.48
31225;BME280;17847;31.524;74.366;2023-07-13T09:07:42;97580.28;;;33.51;73.76
31225;BME280;17847;31.524;74.366;2023-07-13T09:10:28;97585.50;;;33.59;74.77
31225;BME280;17847;31.524;74.366;2023-07-13T09:13:23;97573.22;;;33.50;74.30
31225;BME280;17847;31.524;74.366;2023-07-13T09:15:59;97570.56;;;33.57;73.10
31225;BME280;17847;31.524;74.366;2023-07-13T09:18:37;97563.16;;;33.61;73.15
31225;BME280;17847;31.524;74.366;2023-07-13T09:21:17;97564.97;;;33.50;71.41
31225;BME280;17847;31.524;74.366;2023-07-13T09:24:25;97562.41;;;33.64;71.48
31225;BME280;17847;31.524;74.366;2023-07-13T09:26:49;97555.72;;;33.61;72.06
31225;BME280;17847;31.524;74.366;2023-07-13T09:29:37;97550.66;;;33.63;72.85
31225;BME280;17847;31.524;74.366;2023-07-13T09:32:10;97552.63;;;33.63;71.51
31225;BME280;17847;31.524;74.366;2023-07-13T09:34:42;97548.06;;;33.74;71.12
31225;BME280;17847;31.524;74.366;2023-07-13T09:37:12;97547.91;;;33.63;71.56
31225;BME280;17847;31.524;74.366;2023-07-13T09:39:42;97544.44;;;33.66;72.14
31225;BME280;17847;31.524;74.366;2023-07-13T09:42:20;97540.72;;;33.55;72.40
31225;BME280;17847;31.524;74.366;2023-07-13T09:44:56;97530.28;;;33.38;72.16
31225;BME280;17847;31.524;74.366;2023-07-13T09:47:28;97534.34;;;33.48;71.79
31225;BME280;17847;31.524;74.366;2023-07-13T09:50:03;97520.00;;;33.31;70.38
31225;BME280;17847;31.524;74.366;2023-07-13T09:52:47;97519.28;;;33.38;69.89
31225;BME280;17847;31.524;74.366;2023-07-13T09:55:38;97518.66;;;33.48;71.39
31225;BME280;17847;31.524;74.366;2023-07-13T09:58:16;97518.13;;;33.39;71.82
31225;BME280;17847;31.524;74.366;2023-07-13T10:01:03;97523.63;;;33.39;71.82
31225;BME280;17847;31.524;74.366;2023-07-13T10:03:37;97518.66;;;33.48;71.44
31225;BME280;17847;31.524;74.366;2023-07-13T10:06:15;97526.25;;;33.58;70.49
31225;BME280;17847;31.524;74.366;2023-07-13T10:08:46;97506.53;;;33.49;72.77
31225;BME280;17847;31.524;74.366;2023-07-13T10:11:20;97505.63;;;33.41;70.16
31225;BME280;17847;31.524;74.366;2023-07-13T10:14:01;97501.75;;;33.46;69.98
31225;BME280;17847;31.524;74.366;2023-07-13T10:16:33;97499.69;;;33.36;69.55
31225;BME280;17847;31.524;74.366;2023-07-13T10:19:23;97495.94;;;33.51;68.39
31225;BME280;17847;31.524;74.366;2023-07-13T10:22:01;97497.91;;;33.51;69.82
31225;BME280;17847;31.524;74.366;2023-07-13T10:24:33;97492.34;;;33.47;70.04
31225;BME280;17847;31.524;74.366;2023-07-13T10:27:19;97481.84;;;33.53;70.31
31225;BME280;17847;31.524;74.366;2023-07-13T10:30:20;97476.31;;;33.49;70.90
31225;BME280;17847;31.524;74.366;2023-07-13T10:32:52;97474.72;;;33.48;70.29
31225;BME280;17847;31.524;74.366;2023-07-13T10:35:23;97473.47;;;33.42;69.61
31225;BME280;17847;31.524;74.366;2023-07-13T10:38:10;97475.88;;;33.47;69.53
31225;BME280;17847;31.524;74.366;2023-07-13T10:40:57;97466.16;;;33.53;70.42
31225;BME280;17847;31.524;74.366;2023-07-13T10:46:16;97468.63;;;33.32;69.36
31225;BME280;17847;31.524;74.366;2023-07-13T10:48:51;97465.78;;;33.25;70.40
31225;BME280;17847;31.524;74.366;2023-07-13T10:51:21;97460.69;;;33.23;67.19
31225;BME280;17847;31.524;74.366;2023-07-13T10:57:18;97461.69;;;33.41;69.10
31225;BME280;17847;31.524;74.366;2023-07-13T11:00:13;97459.69;;;33.38;68.87
31225;BME280;17847;31.524;74.366;2023-07-13T11:02:59;97457.25;;;33.33;70.45
31225;BME280;17847;31.524;74.366;2023-07-13T11:05:33;97458.03;;;33.30;72.25
31225;BME280;17847;31.524;74.366;2023-07-13T11:19:24;97450.16;;;33.29;69.03
31225;BME280;17847;31.524;74.366;2023-07-13T11:22:11;97449.97;;;33.15;68.83
31225;BME280;17847;31.524;74.366;2023-07-13T11:25:02;97451.47;;;33.12;69.84
31225;BME280;17847;31.524;74.366;2023-07-13T11:27:52;97453.97;;;33.21;69.46
31225;BME280;17847;31.524;74.366;2023-07-13T11:33:11;97448.78;;;33.16;68.70
31225;BME280;17847;31.524;74.366;2023-07-13T11:38:29;97435.00;;;33.12;69.00
31225;BME280;17847;31.524;74.366;2023-07-13T11:41:04;97437.00;;;33.15;70.36
31225;BME280;17847;31.524;74.366;2023-07-13T11:43:34;97440.13;;;33.14;70.54
31225;BME280;17847;31.524;74.366;2023-07-13T11:48:52;97450.19;;;33.06;71.80
31225;BME280;17847;31.524;74.366;2023-07-13T11:51:31;97452.22;;;33.09;72.24
31225;BME280;17847;31.524;74.366;2023-07-13T11:54:32;97438.00;;;33.04;70.14
31225;BME280;17847;31.524;74.366;2023-07-13T11:57:15;97443.50;;;33.04;70.32
31225;BME280;17847;31.524;74.366;2023-07-13T11:59:50;97449.78;;;33.04;71.87
31225;BME280;17847;31.524;74.366;2023-07-13T12:02:33;97445.41;;;33.00;71.93
31225;BME280;17847;31.524;74.366;2023-07-13T12:05:05;97450.44;;;32.97;71.40
31225;BME280;17847;31.524;74.366;2023-07-13T12:07:39;97442.59;;;32.96;70.74
31225;BME280;17847;31.524;74.366;2023-07-13T12:12:56;97435.09;;;32.93;69.86
31225;BME280;17847;31.524;74.366;2023-07-13T12:15:45;97438.94;;;32.88;69.06
31225;BME280;17847;31.524;74.366;2023-07-13T12:18:23;97431.84;;;32.84;70.65
31225;BME280;17847;31.524;74.366;2023-07-13T12:20:57;97435.78;;;32.86;70.58
31225;BME280;17847;31.524;74.366;2023-07-13T12:23:34;97430.31;;;32.86;71.90
31225;BME280;17847;31.524;74.366;2023-07-13T12:26:06;97427.94;;;32.85;71.64
31225;BME280;17847;31.524;74.366;2023-07-13T12:28:59;97430.22;;;32.79;70.33
31225;BME280;17847;31.524;74.366;2023-07-13T12:31:39;97424.28;;;32.77;70.69
31225;BME280;17847;31.524;74.366;2023-07-13T12:34:18;97429.78;;;32.77;73.15
31225;BME280;17847;31.524;74.366;2023-07-13T12:37:02;97434.81;;;32.75;73.77
31225;BME280;17847;31.524;74.366;2023-07-13T12:39:37;97425.75;;;32.71;72.35
31225;BME280;17847;31.524;74.366;2023-07-13T12:45:18;97412.03;;;32.71;73.92
31225;BME280;17847;31.524;74.366;2023-07-13T12:47:54;97431.19;;;32.68;72.71
31225;BME280;17847;31.524;74.366;2023-07-13T12:50:30;97431.94;;;32.65;73.80
31225;BME280;17847;31.524;74.366;2023-07-13T12:53:04;97437.34;;;32.61;73.89
31225;BME280;17847;31.524;74.366;2023-07-13T12:55:49;97431.00;;;32.57;74.61
31225;BME280;17847;31.524;74.366;2023-07-13T12:58:36;97424.78;;;32.60;74.48
31225;BME280;17847;31.524;74.366;2023-07-13T13:01:09;97424.34;;;32.58;74.36
31225;BME280;17847;31.524;74.366;2023-07-13T13:03:47;97414.47;;;32.53;75.10
31225;BME280;17847;31.524;74.366;2023-07-13T13:08:56;97417.16;;;32.50;74.88
31225;BME280;17847;31.524;74.366;2023-07-13T13:11:28;97425.38;;;32.50;75.70
31225;BME280;17847;31.524;74.366;2023-07-13T13:13:57;97417.47;;;32.45;76.12
31225;BME280;17847;31.524;74.366;2023-07-13T13:16:32;97420.16;;;32.41;75.20
31225;BME280;17847;31.524;74.366;2023-07-13T13:19:21;97429.63;;;32.44;75.59
31225;BME280;17847;31.524;74.366;2023-07-13T13:21:53;97423.25;;;32.40;76.14
31225;BME280;17847;31.524;74.366;2023-07-13T13:24:27;97422.09;;;32.41;76.19
31225;BME280;17847;31.524;74.366;2023-07-13T13:26:58;97427.59;;;32.41;75.33
31225;BME280;17847;31.524;74.366;2023-07-13T13:29:27;97429.84;;;32.35;75.22
31225;BME280;17847;31.524;74.366;2023-07-13T13:31:56;97422.41;;;32.36;75.99
31225;BME280;17847;31.524;74.366;2023-07-13T13:34:26;97424.28;;;32.32;75.48
31225;BME280;17847;31.524;74.366;2023-07-13T13:36:56;97418.81;;;32.32;75.02
31225;BME280;17847;31.524;74.366;2023-07-13T13:39:34;97426.19;;;32.28;75.09
31225;BME280;17847;31.524;74.366;2023-07-13T13:42:05;97424.19;;;32.25;75.50
31225;BME280;17847;31.524;74.366;2023-07-13T13:44:34;97421.81;;;32.23;75.53
31225;BME280;17847;31.524;74.366;2023-07-13T13:47:04;97428.38;;;32.19;76.36
31225;BME280;17847;31.524;74.366;2023-07-13T13:49:33;97431.84;;;32.16;75.25
31225;BME280;17847;31.524;74.366;2023-07-13T13:52:08;97426.72;;;32.14;74.38
31225;BME280;17847;31.524;74.366;2023-07-13T13:54:38;97429.41;;;32.11;74.19
31225;BME280;17847;31.524;74.366;2023-07-13T13:57:09;97433.75;;;32.12;74.37
31225;BME280;17847;31.524;74.366;2023-07-13T13:59:41;97426.94;;;32.05;74.78
31225;BME280;17847;31.524;74.366;2023-07-13T14:02:24;97426.03;;;31.98;75.62